Cranbrook, Canada
Current Conditions -  °F | °C
As of 5:00 PM on Saturday 25 Oct 2014 (Local Time) from CYXC Reporting Station
Rain Showers Rain Showers  
Wind Chill: 48°   Ceiling: 6000
Heat Index: 48°   Visibility: 15mi
Dew Point: 37°   Wind: 0mph
Humidity: 66%   Direction: NA
Pressure: 29.67"   Gusts: NA
Location:  49.51°N, 115.77°W
Report Text: CYXC 252300Z 00000KT 15SM -SHRA BKN060 BKN110 09/03 A2967 RMK SC5AC2 CVCTV CLD EMBD SLP061 DENSITY ALT 3400FT
Loading
Personal Weather Stations






























Interactive Weather Map
Tropical Storm Tracking
New forecast layout! Learn more

10-Day Weather Forecast

Advertisements
Track Severe Weather on mobile